createdAt,value
2019-03-23T00:01:44.942Z,73.66
2019-03-23T00:04:16.685Z,73.48
2019-03-23T00:06:48.389Z,73.04
2019-03-23T00:09:20.066Z,73.35
2019-03-23T00:11:51.584Z,73.27
2019-03-23T00:14:23.347Z,73.12
2019-03-23T00:16:54.863Z,73.56
2019-03-23T00:19:26.516Z,73.34
2019-03-23T00:21:58.194Z,73.35
2019-03-23T00:24:29.862Z,73.16
2019-03-23T00:27:01.652Z,73.20
2019-03-23T00:29:34.777Z,73.21
2019-03-23T00:32:06.598Z,73.07
2019-03-23T00:34:38.255Z,73.17
2019-03-23T00:37:09.847Z,73.54
2019-03-23T00:39:41.365Z,73.89
2019-03-23T00:42:12.880Z,74.08
2019-03-23T00:44:44.396Z,74.26
2019-03-23T00:47:16.984Z,74.49
2019-03-23T00:49:48.547Z,74.87
2019-03-23T00:52:20.117Z,74.82
2019-03-23T00:54:51.639Z,74.83
2019-03-23T00:57:23.164Z,74.78
2019-03-23T00:59:54.687Z,74.99
2019-03-23T01:02:26.203Z,74.58
2019-03-23T01:04:57.781Z,74.53
2019-03-23T01:07:29.304Z,74.32
2019-03-23T01:10:00.807Z,74.34
2019-03-23T01:12:32.351Z,74.34
2019-03-23T01:15:06.176Z,74.40
2019-03-23T01:17:37.770Z,74.42
2019-03-23T01:20:11.587Z,74.46
2019-03-23T01:22:43.136Z,74.47
2019-03-23T01:25:14.690Z,74.41
2019-03-23T01:27:46.242Z,74.46
2019-03-23T01:30:18.369Z,74.45
2019-03-23T01:32:49.905Z,74.65
2019-03-23T01:35:21.427Z,75.28
2019-03-23T01:37:53.004Z,76.18
2019-03-23T01:40:24.502Z,75.99
2019-03-23T01:42:56.018Z,76.12
2019-03-23T01:45:27.534Z,75.70
2019-03-23T01:47:59.105Z,76.01
2019-03-23T01:50:30.605Z,76.63
2019-03-23T01:53:03.168Z,76.73
2019-03-23T01:55:34.668Z,76.29
2019-03-23T01:58:06.294Z,75.31
2019-03-23T02:00:37.806Z,74.74
2019-03-23T02:03:09.464Z,74.41
2019-03-23T02:05:40.962Z,74.30
2019-03-23T02:08:12.481Z,74.34
2019-03-23T02:10:44.000Z,74.74
2019-03-23T02:13:15.489Z,74.88
2019-03-23T02:15:47.009Z,74.88
2019-03-23T02:18:18.670Z,75.27
2019-03-23T02:20:50.236Z,75.45
2019-03-23T02:23:21.732Z,76.08
2019-03-23T02:25:53.231Z,75.80
2019-03-23T02:28:24.796Z,75.19
2019-03-23T02:30:56.314Z,74.76
2019-03-23T02:33:27.851Z,75.06
2019-03-23T02:35:59.414Z,75.07
2019-03-23T02:38:30.930Z,75.20
2019-03-23T02:41:02.511Z,75.39
2019-03-23T02:43:34.151Z,75.50
2019-03-23T02:46:05.717Z,74.86
2019-03-23T02:48:37.229Z,75.88
2019-03-23T02:51:08.752Z,75.33
2019-03-23T02:53:40.354Z,75.74
2019-03-23T02:56:11.841Z,75.97
2019-03-23T02:58:43.399Z,75.35
2019-03-23T03:01:14.981Z,74.91
2019-03-23T03:03:46.649Z,74.82
2019-03-23T03:06:18.227Z,74.44
2019-03-23T03:08:49.736Z,75.37
2019-03-23T03:11:21.263Z,76.21
2019-03-23T03:13:53.831Z,76.32
2019-03-23T03:16:25.332Z,76.47
2019-03-23T03:18:57.138Z,76.32
2019-03-23T03:21:28.657Z,76.37
2019-03-23T03:24:00.222Z,76.08
2019-03-23T03:26:31.796Z,75.60
2019-03-23T03:29:03.320Z,75.45
2019-03-23T03:31:34.830Z,75.38
2019-03-23T03:34:06.342Z,75.22
2019-03-23T03:36:37.865Z,75.73
2019-03-23T03:39:10.457Z,75.67
2019-03-23T03:41:41.968Z,75.63
2019-03-23T03:44:13.551Z,76.10
2019-03-23T03:46:45.072Z,76.50
2019-03-23T03:49:16.669Z,76.14
2019-03-23T03:51:48.157Z,76.04
2019-03-23T03:54:19.722Z,75.68
2019-03-23T03:56:51.221Z,75.48
2019-03-23T03:59:22.813Z,76.56
2019-03-23T04:01:54.303Z,76.93
2019-03-23T04:04:25.831Z,77.19
2019-03-23T04:06:57.320Z,77.11
2019-03-23T04:09:28.869Z,77.30
2019-03-23T04:12:00.463Z,77.33
2019-03-23T04:14:31.983Z,77.42
2019-03-23T04:17:03.469Z,77.21
2019-03-23T04:19:35.055Z,77.24
2019-03-23T04:22:06.569Z,77.20
2019-03-23T04:24:38.069Z,77.16
2019-03-23T04:27:09.664Z,77.00
2019-03-23T04:29:41.167Z,77.49
2019-03-23T04:32:12.716Z,77.60
2019-03-23T04:34:44.238Z,77.52
2019-03-23T04:37:15.729Z,77.32
2019-03-23T04:39:47.342Z,77.22
2019-03-23T04:42:18.929Z,77.58
2019-03-23T04:44:50.426Z,77.53
2019-03-23T04:47:21.931Z,77.62
2019-03-23T04:49:54.488Z,77.91
2019-03-23T04:52:26.005Z,78.03
2019-03-23T04:54:57.537Z,78.36
2019-03-23T04:57:29.053Z,78.48
2019-03-23T05:00:00.594Z,78.70
2019-03-23T05:02:32.162Z,78.54
2019-03-23T05:05:04.448Z,78.20
2019-03-23T05:07:35.950Z,77.79
2019-03-23T05:10:08.484Z,77.35
2019-03-23T05:12:39.999Z,77.06
2019-03-23T05:15:11.598Z,76.45
2019-03-23T05:17:44.248Z,76.01
2019-03-23T05:20:32.479Z,75.55
2019-03-23T05:23:04.048Z,75.43
2019-03-23T05:25:35.590Z,75.37
2019-03-23T05:28:07.104Z,75.04
2019-03-23T05:30:38.621Z,74.55
2019-03-23T05:33:11.208Z,74.23
2019-03-23T05:35:42.704Z,73.88
2019-03-23T05:38:14.224Z,73.88
2019-03-23T05:40:45.806Z,73.84
2019-03-23T05:43:17.373Z,73.68
2019-03-23T05:45:48.884Z,73.34
2019-03-23T05:48:20.473Z,72.80
2019-03-23T05:50:51.977Z,72.19
2019-03-23T05:53:23.477Z,72.19
2019-03-23T05:55:54.990Z,71.99
2019-03-23T05:58:26.506Z,71.75
2019-03-23T06:00:58.018Z,71.39
2019-03-23T06:03:29.628Z,71.38
2019-03-23T06:06:01.182Z,71.14
2019-03-23T06:08:33.763Z,70.84
2019-03-23T06:11:05.294Z,70.57
2019-03-23T06:13:36.820Z,69.32
2019-03-23T06:16:08.343Z,68.27
2019-03-23T06:18:39.919Z,67.10
2019-03-23T06:21:12.527Z,66.46
2019-03-23T06:23:44.061Z,66.18
2019-03-23T06:26:15.634Z,66.20
2019-03-23T06:28:47.172Z,65.59
2019-03-23T06:31:18.782Z,65.92
2019-03-23T06:33:50.431Z,64.86
2019-03-23T06:36:22.021Z,64.18
2019-03-23T06:38:53.612Z,63.72
2019-03-23T06:41:25.166Z,63.40
2019-03-23T06:43:57.739Z,62.75
2019-03-23T06:46:30.238Z,62.59
2019-03-23T06:49:01.771Z,62.38
2019-03-23T06:51:33.376Z,61.96
2019-03-23T06:54:04.899Z,61.40
2019-03-23T06:56:36.416Z,60.88
2019-03-23T06:59:08.016Z,61.11
2019-03-23T07:01:39.538Z,60.64
2019-03-23T07:04:11.058Z,60.56
2019-03-23T07:06:42.655Z,60.98
2019-03-23T07:09:16.424Z,60.75
2019-03-23T07:11:47.640Z,61.40
2019-03-23T07:14:19.153Z,60.82
2019-03-23T07:16:50.657Z,60.37
2019-03-23T07:19:22.265Z,60.11
2019-03-23T07:21:54.042Z,59.79
2019-03-23T07:24:25.550Z,59.67
2019-03-23T07:26:57.060Z,59.68
2019-03-23T07:29:28.605Z,59.43
2019-03-23T07:32:05.609Z,59.36
2019-03-23T07:34:33.449Z,59.09
2019-03-23T07:37:04.970Z,59.16
2019-03-23T07:39:36.500Z,58.74
2019-03-23T07:42:08.117Z,58.76
2019-03-23T07:44:39.600Z,58.27
2019-03-23T07:47:11.130Z,58.11
2019-03-23T07:49:42.636Z,58.16
2019-03-23T07:52:14.213Z,57.95
2019-03-23T07:54:45.807Z,57.81
2019-03-23T07:57:17.325Z,57.46
2019-03-23T07:59:48.861Z,57.47
2019-03-23T08:02:20.389Z,57.38
2019-03-23T08:04:51.894Z,57.05
2019-03-23T08:07:23.417Z,57.05
2019-03-23T08:09:54.954Z,56.77
2019-03-23T08:12:26.470Z,56.82
2019-03-23T08:14:58.060Z,56.14
2019-03-23T08:17:29.584Z,55.73
2019-03-23T08:20:01.164Z,55.45
2019-03-23T08:22:33.748Z,55.53
2019-03-23T08:25:07.268Z,55.11
2019-03-23T08:27:38.851Z,54.95
2019-03-23T08:30:10.794Z,54.82
2019-03-23T08:32:42.390Z,54.71
2019-03-23T08:35:13.913Z,54.67
2019-03-23T08:37:45.475Z,54.63
2019-03-23T08:40:16.990Z,54.04
2019-03-23T08:42:48.611Z,54.23
2019-03-23T08:45:20.139Z,54.00
2019-03-23T08:47:51.698Z,53.90
2019-03-23T08:50:23.358Z,53.90
2019-03-23T08:52:54.879Z,53.54
2019-03-23T08:55:26.533Z,53.54
2019-03-23T08:57:58.165Z,52.94
2019-03-23T09:00:29.773Z,52.38
2019-03-23T09:03:03.619Z,52.36
2019-03-23T09:05:35.640Z,52.31
2019-03-23T09:08:07.228Z,51.78
2019-03-23T09:10:38.824Z,51.54
2019-03-23T09:13:10.431Z,51.36
2019-03-23T09:15:42.103Z,51.38
2019-03-23T09:18:13.658Z,51.52
2019-03-23T09:20:45.388Z,51.21
2019-03-23T09:23:16.919Z,50.48
2019-03-23T09:25:48.416Z,50.38
2019-03-23T09:28:20.005Z,50.03
2019-03-23T09:30:51.589Z,49.44
2019-03-23T09:33:23.195Z,49.72
2019-03-23T09:35:54.770Z,49.19
2019-03-23T09:38:26.323Z,48.82
2019-03-23T09:40:57.847Z,48.16
2019-03-23T09:43:29.365Z,48.19
2019-03-23T09:46:01.073Z,48.02
2019-03-23T09:48:32.577Z,47.97
2019-03-23T09:51:04.172Z,47.82
2019-03-23T09:53:35.743Z,47.62
2019-03-23T09:56:07.269Z,47.51
2019-03-23T09:58:38.785Z,47.12
2019-03-23T10:01:10.267Z,47.11
2019-03-23T10:03:42.925Z,47.03
2019-03-23T10:06:16.688Z,46.99
2019-03-23T10:08:48.218Z,47.10
2019-03-23T10:11:19.742Z,46.97
2019-03-23T10:13:51.265Z,46.65
2019-03-23T10:16:22.859Z,46.79
2019-03-23T10:18:54.461Z,46.35
2019-03-23T10:21:26.949Z,46.08
2019-03-23T10:23:58.559Z,46.17
2019-03-23T10:26:30.143Z,45.87
2019-03-23T10:29:01.667Z,45.63
2019-03-23T10:31:33.252Z,45.63
2019-03-23T10:34:04.768Z,45.58
2019-03-23T10:36:36.275Z,45.30
2019-03-23T10:39:07.843Z,44.69
2019-03-23T10:41:39.426Z,44.76
2019-03-23T10:44:10.949Z,44.38
2019-03-23T10:46:42.471Z,44.70
2019-03-23T10:49:13.993Z,44.44
2019-03-23T10:51:45.600Z,44.33
2019-03-23T10:54:17.138Z,43.92
2019-03-23T10:56:48.677Z,43.67
2019-03-23T10:59:20.198Z,44.10
2019-03-23T11:01:51.719Z,43.82
2019-03-23T11:04:23.320Z,44.21
2019-03-23T11:06:54.905Z,44.63
2019-03-23T11:09:26.490Z,44.16
2019-03-23T11:11:58.010Z,43.94
2019-03-23T11:14:29.528Z,43.99
2019-03-23T11:17:01.066Z,43.83
2019-03-23T11:19:32.605Z,43.63
2019-03-23T11:22:04.237Z,43.43
2019-03-23T11:24:35.755Z,43.00
2019-03-23T11:27:07.366Z,42.62
2019-03-23T11:29:38.897Z,43.18
2019-03-23T11:32:10.419Z,42.74
2019-03-23T11:34:42.055Z,42.79
2019-03-23T11:37:13.634Z,42.50
2019-03-23T11:39:45.211Z,42.37
2019-03-23T11:42:16.738Z,42.30
2019-03-23T11:44:48.318Z,42.23
2019-03-23T11:47:19.861Z,42.30
2019-03-23T11:49:51.389Z,42.38
2019-03-23T11:52:23.878Z,42.92
2019-03-23T11:54:55.472Z,42.65
2019-03-23T11:57:27.076Z,42.82
2019-03-23T11:59:58.673Z,42.31
2019-03-23T12:02:30.251Z,42.47
2019-03-23T12:05:01.763Z,42.70
2019-03-23T12:07:33.343Z,43.10
2019-03-23T12:10:09.152Z,43.00
2019-03-23T12:12:41.814Z,43.31
2019-03-23T12:15:13.559Z,43.48
2019-03-23T12:17:45.098Z,43.47
2019-03-23T12:20:16.700Z,43.44
2019-03-23T12:22:48.293Z,42.96
2019-03-23T12:25:19.903Z,42.82
2019-03-23T12:27:51.424Z,42.90
2019-03-23T12:30:23.090Z,42.44
2019-03-23T12:32:54.617Z,43.02
2019-03-23T12:35:26.153Z,43.11
2019-03-23T12:37:57.677Z,42.90
2019-03-23T12:40:29.180Z,42.94
2019-03-23T12:43:00.699Z,42.82
2019-03-23T12:45:32.221Z,42.60
2019-03-23T12:48:03.758Z,43.02
2019-03-23T12:50:35.280Z,42.96
2019-03-23T12:53:06.980Z,42.37
2019-03-23T12:55:38.452Z,41.40
2019-03-23T12:58:09.969Z,41.18
2019-03-23T13:00:41.590Z,41.48
2019-03-23T13:03:13.190Z,42.02
2019-03-23T13:05:44.709Z,41.91
2019-03-23T13:08:16.286Z,41.76
2019-03-23T13:10:47.826Z,41.95
2019-03-23T13:13:19.385Z,41.77
2019-03-23T13:15:50.995Z,41.55
2019-03-23T13:18:27.044Z,41.42
2019-03-23T13:20:55.891Z,42.11
2019-03-23T13:23:27.391Z,42.04
2019-03-23T13:25:58.981Z,42.15
2019-03-23T13:28:30.484Z,42.18
2019-03-23T13:31:02.007Z,42.33
2019-03-23T13:33:33.669Z,42.46
2019-03-23T13:36:05.853Z,42.84
2019-03-23T13:38:37.430Z,42.74
2019-03-23T13:41:08.954Z,43.09
2019-03-23T13:43:40.480Z,42.83
2019-03-23T13:46:12.014Z,42.29
2019-03-23T13:48:43.547Z,42.63
2019-03-23T13:51:15.047Z,42.63
2019-03-23T13:53:46.601Z,42.47
2019-03-23T13:56:18.195Z,42.45
2019-03-23T13:58:49.749Z,42.82
2019-03-23T14:01:21.342Z,43.06
2019-03-23T14:03:52.933Z,43.31
2019-03-23T14:06:24.471Z,43.54
2019-03-23T14:08:56.422Z,43.40
2019-03-23T14:11:27.955Z,43.22
2019-03-23T14:14:00.538Z,43.22
2019-03-23T14:16:32.046Z,43.25
2019-03-23T14:19:03.636Z,43.17
2019-03-23T14:21:35.150Z,43.13
2019-03-23T14:24:06.720Z,42.68
2019-03-23T14:26:38.232Z,42.46
2019-03-23T14:29:09.761Z,42.22
2019-03-23T14:31:41.466Z,41.90
2019-03-23T14:34:12.969Z,40.89
2019-03-23T14:36:44.545Z,40.45
2019-03-23T14:39:16.065Z,40.53
2019-03-23T14:41:47.659Z,40.41
2019-03-23T14:44:19.339Z,40.42
2019-03-23T14:46:50.924Z,40.68
2019-03-23T14:49:22.486Z,40.57
2019-03-23T14:51:53.985Z,40.52
2019-03-23T14:54:25.503Z,40.61
2019-03-23T14:56:57.137Z,40.44
2019-03-23T14:59:28.643Z,40.88
2019-03-23T15:02:00.191Z,40.62
2019-03-23T15:04:31.670Z,40.54
2019-03-23T15:07:04.272Z,40.61
2019-03-23T15:09:35.791Z,40.63
2019-03-23T15:12:14.776Z,40.86
2019-03-23T15:14:40.547Z,40.66
2019-03-23T15:17:12.060Z,40.46
2019-03-23T15:19:43.571Z,40.38
2019-03-23T15:22:15.188Z,39.88
2019-03-23T15:24:47.781Z,39.80
2019-03-23T15:27:19.389Z,39.96
2019-03-23T15:29:51.077Z,39.96
2019-03-23T15:32:22.640Z,39.90
2019-03-23T15:34:54.156Z,39.73
2019-03-23T15:37:25.672Z,39.96
2019-03-23T15:39:57.194Z,40.04
2019-03-23T15:42:28.721Z,39.31
2019-03-23T15:45:00.334Z,39.14
2019-03-23T15:47:31.820Z,39.41
2019-03-23T15:50:04.650Z,39.92
2019-03-23T15:52:36.156Z,40.62
2019-03-23T15:55:07.717Z,40.69
2019-03-23T15:57:39.269Z,41.05
2019-03-23T16:00:12.201Z,41.20
2019-03-23T16:02:43.842Z,41.50
2019-03-23T16:05:15.437Z,41.27
2019-03-23T16:07:46.942Z,40.73
2019-03-23T16:10:18.463Z,40.59
2019-03-23T16:12:50.011Z,40.48
2019-03-23T16:15:21.617Z,40.71
2019-03-23T16:17:53.145Z,41.80
2019-03-23T16:20:24.666Z,42.64
2019-03-23T16:22:56.269Z,44.00
2019-03-23T16:25:27.795Z,45.49
2019-03-23T16:27:59.398Z,49.31
2019-03-23T16:30:32.126Z,50.52
2019-03-23T16:33:03.648Z,50.99
2019-03-23T16:35:35.243Z,51.74
2019-03-23T16:38:06.762Z,49.51
2019-03-23T16:40:38.348Z,48.71
2019-03-23T16:43:09.982Z,48.98
2019-03-23T16:45:52.990Z,49.48
2019-03-23T16:48:14.824Z,50.15
2019-03-23T16:50:46.417Z,50.82
2019-03-23T16:53:18.009Z,51.86
2019-03-23T16:55:49.534Z,52.75
2019-03-23T16:58:21.136Z,53.44
2019-03-23T17:00:52.648Z,53.70
2019-03-23T17:03:24.221Z,54.47
2019-03-23T17:05:55.739Z,54.93
2019-03-23T17:08:27.351Z,55.25
2019-03-23T17:10:58.837Z,55.35
2019-03-23T17:13:30.429Z,55.52
2019-03-23T17:16:02.021Z,55.57
2019-03-23T17:18:33.600Z,55.35
2019-03-23T17:21:05.149Z,55.52
2019-03-23T17:23:37.417Z,55.76
2019-03-23T17:26:10.558Z,52.73
2019-03-23T17:28:42.089Z,52.73
2019-03-23T17:31:13.592Z,52.05
2019-03-23T17:33:46.069Z,52.72
2019-03-23T17:36:17.611Z,53.36
2019-03-23T17:38:49.163Z,54.40
2019-03-23T17:41:23.426Z,55.77
2019-03-23T17:43:54.929Z,56.89
2019-03-23T17:46:27.816Z,57.34
2019-03-23T17:48:59.467Z,58.24
2019-03-23T17:51:31.004Z,58.78
2019-03-23T17:54:02.504Z,59.08
2019-03-23T17:56:34.014Z,59.58
2019-03-23T17:59:05.574Z,59.60
2019-03-23T18:01:37.253Z,59.56
2019-03-23T18:04:09.734Z,59.60
2019-03-23T18:06:45.472Z,59.95
2019-03-23T18:09:17.159Z,59.74
2019-03-23T18:11:52.094Z,59.53
2019-03-23T18:14:24.001Z,58.27
2019-03-23T18:16:58.804Z,58.60
2019-03-23T18:19:34.649Z,58.55
2019-03-23T18:22:07.877Z,58.99
2019-03-23T18:24:39.408Z,58.71
2019-03-23T18:27:12.561Z,58.39
2019-03-23T18:29:44.210Z,58.23
2019-03-23T18:32:15.864Z,58.72
2019-03-23T18:34:47.636Z,58.91
2019-03-23T18:37:22.593Z,59.26
2019-03-23T18:39:54.161Z,59.17
2019-03-23T18:42:25.695Z,59.25
2019-03-23T18:44:57.274Z,59.36
2019-03-23T18:47:30.179Z,59.68
2019-03-23T18:50:01.715Z,59.72
2019-03-23T18:52:33.243Z,59.75
2019-03-23T18:55:11.483Z,59.88
2019-03-23T18:57:44.314Z,60.13
2019-03-23T19:00:39.681Z,60.35
2019-03-23T19:03:12.750Z,60.49
2019-03-23T19:05:44.273Z,60.46
2019-03-23T19:08:15.798Z,60.57
2019-03-23T19:10:47.333Z,60.79
2019-03-23T19:13:18.916Z,60.92
2019-03-23T19:15:52.032Z,61.31
2019-03-23T19:18:23.560Z,61.32
2019-03-23T19:21:07.611Z,61.44
2019-03-23T19:23:38.710Z,62.00
2019-03-23T19:26:10.529Z,62.14
2019-03-23T19:29:03.454Z,62.12
2019-03-23T19:31:34.981Z,62.20
2019-03-23T19:34:06.491Z,62.22
2019-03-23T19:36:38.006Z,62.55
2019-03-23T19:39:10.693Z,62.70
2019-03-23T19:41:42.283Z,62.96
2019-03-23T19:44:17.034Z,63.11
2019-03-23T19:46:52.498Z,63.19
2019-03-23T19:49:24.119Z,63.47
2019-03-23T19:51:55.702Z,63.41
2019-03-23T19:54:27.444Z,63.63
2019-03-23T19:57:00.751Z,64.10
2019-03-23T19:59:35.581Z,64.04
2019-03-23T20:02:12.158Z,63.63
2019-03-23T20:05:00.154Z,63.42
2019-03-23T20:07:41.315Z,63.26
2019-03-23T20:10:15.480Z,63.57
2019-03-23T20:12:51.942Z,63.72
2019-03-23T20:15:22.249Z,63.47
2019-03-23T20:17:53.781Z,63.63
2019-03-23T20:20:26.922Z,63.26
2019-03-23T20:22:58.710Z,63.21
2019-03-23T20:25:30.551Z,63.26
2019-03-23T20:28:03.900Z,63.60
2019-03-23T20:30:37.034Z,63.62
2019-03-23T20:33:19.239Z,63.75
2019-03-23T20:35:47.666Z,64.01
2019-03-23T20:38:19.336Z,64.31
2019-03-23T20:40:51.669Z,64.38
2019-03-23T20:43:23.268Z,64.69
2019-03-23T20:45:54.973Z,64.98
2019-03-23T20:48:26.587Z,65.12
2019-03-23T20:50:58.112Z,64.81
2019-03-23T20:53:29.818Z,64.95
2019-03-23T20:56:01.521Z,65.05
2019-03-23T20:58:33.155Z,65.00
2019-03-23T21:01:05.100Z,65.00
2019-03-23T21:03:36.745Z,65.21
2019-03-23T21:06:08.899Z,65.49
2019-03-23T21:08:40.863Z,65.46
2019-03-23T21:11:12.414Z,65.38
2019-03-23T21:13:44.231Z,65.35
2019-03-23T21:16:15.892Z,65.41
2019-03-23T21:18:47.477Z,65.30
2019-03-23T21:21:19.172Z,65.36
2019-03-23T21:23:52.131Z,65.28
2019-03-23T21:26:23.887Z,65.16
2019-03-23T21:28:55.542Z,65.09
2019-03-23T21:31:27.059Z,65.00
2019-03-23T21:33:58.674Z,64.70
2019-03-23T21:36:31.957Z,64.99
2019-03-23T21:39:04.645Z,64.74
2019-03-23T21:41:37.630Z,64.88
2019-03-23T21:44:14.965Z,65.13
2019-03-23T21:46:46.634Z,65.06
2019-03-23T21:51:21.827Z,65.21
2019-03-23T21:53:55.849Z,64.42
2019-03-23T21:56:27.498Z,63.39
2019-03-23T21:58:59.075Z,62.81
2019-03-23T22:01:32.476Z,62.87
2019-03-23T22:04:04.052Z,63.09
2019-03-23T22:06:35.641Z,63.26
2019-03-23T22:09:07.440Z,63.38
2019-03-23T22:11:38.976Z,63.54
2019-03-23T22:16:21.558Z,64.16
2019-03-23T22:18:53.125Z,64.28
2019-03-23T22:21:27.875Z,64.46
2019-03-23T22:23:59.692Z,64.68
2019-03-23T22:26:31.205Z,64.67
2019-03-23T22:29:02.732Z,64.93
2019-03-23T22:31:34.249Z,65.19
2019-03-23T22:34:05.827Z,65.16
2019-03-23T22:36:37.406Z,65.44
2019-03-23T22:39:09.034Z,65.36
2019-03-23T22:41:40.524Z,65.57
2019-03-23T22:44:12.114Z,65.60
2019-03-23T22:46:43.641Z,65.65
2019-03-23T22:49:15.185Z,65.89
2019-03-23T22:51:46.827Z,65.84
2019-03-23T22:54:18.347Z,65.99
2019-03-23T22:56:49.979Z,65.86
2019-03-23T22:59:21.571Z,65.89
2019-03-23T23:01:53.158Z,66.05
2019-03-23T23:04:25.835Z,66.04
2019-03-23T23:06:57.358Z,66.10
2019-03-23T23:09:28.850Z,66.17
2019-03-23T23:12:00.443Z,66.18
2019-03-23T23:14:32.031Z,66.30
2019-03-23T23:17:03.624Z,66.21
2019-03-23T23:19:35.152Z,66.32
2019-03-23T23:22:06.728Z,66.42
2019-03-23T23:24:38.248Z,66.47
2019-03-23T23:27:09.979Z,66.68
2019-03-23T23:29:41.571Z,66.72
2019-03-23T23:32:13.193Z,66.84
2019-03-23T23:34:44.822Z,66.97
2019-03-23T23:37:16.325Z,67.17
2019-03-23T23:39:47.841Z,67.24
2019-03-23T23:42:19.357Z,67.06
2019-03-23T23:44:50.883Z,67.00
2019-03-23T23:47:22.465Z,67.01
2019-03-23T23:49:53.978Z,67.00
2019-03-23T23:52:25.538Z,67.06
2019-03-23T23:54:57.053Z,67.13
2019-03-23T23:57:29.597Z,66.97
